Time;durP1;ratioP1;P1;durP2;ratioP2;P2;SDS_P1;SDS_P2;PMS_P1;PMS_P2;Temp;Humidity;BMP_temperature;BMP_pressure;BME280_temperature;BME280_humidity;BME280_pressure;Samples;Min_cycle;Max_cycle;Signal;HPM_P1;HPM_P2
2021/04/01 00:01:10;;;;;;;62.67;37.42;;;;;;;8.96;88.06;99799.28;1796075;79;21122;-69
2021/04/01 00:03:42;;;;;;;66.85;38.63;;;;;;;8.95;88.09;99790.25;1796030;79;21145;-69
2021/04/01 00:06:12;;;;;;;65.03;37.70;;;;;;;8.93;88.14;99788.37;1796254;79;26479;-69
2021/04/01 00:08:41;;;;;;;66.55;39.15;;;;;;;8.91;88.24;99781.83;1796107;79;21358;-69
2021/04/01 00:11:10;;;;;;;75.45;40.58;;;;;;;8.91;88.32;99787.30;1780542;79;21717;-69
2021/04/01 00:13:38;;;;;;;72.32;40.17;;;;;;;8.89;88.39;99779.94;1795938;79;21366;-69
2021/04/01 00:16:08;;;;;;;67.97;38.10;;;;;;;8.87;88.54;99773.95;1795966;79;21381;-69
2021/04/01 00:18:38;;;;;;;62.62;37.93;;;;;;;8.86;88.67;99768.22;1796105;79;21396;-69
2021/04/01 00:21:05;;;;;;;64.45;35.88;;;;;;;8.86;88.73;99770.14;1795833;79;21943;-69
2021/04/01 00:23:33;;;;;;;64.47;35.92;;;;;;;8.83;88.82;99764.70;1780036;79;21891;-69
2021/04/01 00:26:00;;;;;;;61.95;34.85;;;;;;;8.83;88.89;99761.97;1795960;79;21791;-68
2021/04/01 00:28:28;;;;;;;65.57;35.78;;;;;;;8.82;88.88;99761.71;1795976;79;21113;-68
2021/04/01 00:30:56;;;;;;;72.72;35.92;;;;;;;8.82;88.92;99756.80;1796012;79;21114;-68
2021/04/01 00:33:24;;;;;;;73.02;36.20;;;;;;;8.82;88.90;99762.27;1795950;79;21798;-67
2021/04/01 00:35:51;;;;;;;69.05;35.43;;;;;;;8.80;88.96;99756.28;1802947;78;21437;-67
2021/04/01 00:38:19;;;;;;;62.30;34.60;;;;;;;8.77;89.03;99747.30;1803980;79;21376;-67
2021/04/01 00:40:49;;;;;;;62.90;35.17;;;;;;;8.73;89.12;99745.70;1803925;79;21313;-67
2021/04/01 00:43:16;;;;;;;60.52;35.30;;;;;;;8.68;89.21;99740.88;1804105;79;21825;-67
2021/04/01 00:45:44;;;;;;;80.67;37.17;;;;;;;8.60;89.51;99737.73;1803894;79;21193;-67
2021/04/01 00:48:12;;;;;;;70.95;37.08;;;;;;;8.54;89.80;99732.63;1803892;79;21892;-67
2021/04/01 00:50:40;;;;;;;68.12;38.00;;;;;;;8.48;90.00;99732.45;1803913;78;20984;-67
2021/04/01 00:53:10;;;;;;;66.25;37.85;;;;;;;8.43;90.22;99723.77;1803936;79;21178;-67
2021/04/01 00:55:38;;;;;;;66.15;38.02;;;;;;;8.38;90.51;99727.95;1803955;79;21876;-67
2021/04/01 00:58:05;;;;;;;65.70;37.38;;;;;;;8.34;90.79;99731.58;1774765;79;22198;-66
2021/04/01 01:00:34;;;;;;;67.55;37.60;;;;;;;8.29;91.01;99726.95;1803812;79;21385;-66
2021/04/01 01:03:02;;;;;;;71.67;37.08;;;;;;;8.22;91.19;99723.23;1803976;79;21861;-66
2021/04/01 01:05:31;;;;;;;65.28;37.80;;;;;;;8.17;91.71;99721.12;1803855;79;21130;-67
2021/04/01 01:08:00;;;;;;;64.15;36.70;;;;;;;8.11;92.17;99718.20;1804090;79;21430;-67
2021/04/01 01:10:30;;;;;;;74.15;38.17;;;;;;;8.06;92.41;99715.56;1803880;79;21397;-67
2021/04/01 01:12:59;;;;;;;64.30;35.60;;;;;;;8.02;92.79;99718.63;1803861;79;21377;-67
2021/04/01 01:15:29;;;;;;;60.50;35.38;;;;;;;7.99;93.15;99719.22;1803837;79;20992;-67
2021/04/01 01:17:57;;;;;;;64.72;37.63;;;;;;;7.98;93.42;99722.50;1803936;79;21879;-66
2021/04/01 01:20:26;;;;;;;63.40;37.15;;;;;;;7.96;93.66;99712.41;1804024;79;21134;-67
2021/04/01 01:22:56;;;;;;;66.57;39.13;;;;;;;7.94;94.32;99703.69;1799405;79;21428;-67
2021/04/01 01:25:23;;;;;;;70.80;39.27;;;;;;;7.93;94.47;99708.34;1803970;79;21896;-67
2021/04/01 01:27:51;;;;;;;66.80;38.98;;;;;;;7.91;94.74;99703.73;1803950;79;21397;-67
2021/04/01 01:30:20;;;;;;;63.25;37.63;;;;;;;7.92;94.93;99701.81;1774980;79;21113;-67
2021/04/01 01:32:56;;;;;;;68.75;38.55;;;;;;;7.92;95.08;99702.63;1804095;79;21826;-66
2021/04/01 01:35:21;;;;;;;72.25;39.27;;;;;;;7.91;95.51;99699.62;1798641;79;21391;-66
2021/04/01 01:37:59;;;;;;;71.05;38.95;;;;;;;7.92;95.66;99697.70;1796063;79;21121;-66
2021/04/01 01:40:28;;;;;;;60.25;35.30;;;;;;;7.91;95.66;99703.73;1780767;79;21453;-66
2021/04/01 01:42:58;;;;;;;64.60;36.65;;;;;;;7.91;95.80;99696.89;1796008;79;21137;-66
2021/04/01 01:45:27;;;;;;;76.33;39.98;;;;;;;7.90;95.86;99692.53;1796152;79;21801;-66
2021/04/01 01:47:56;;;;;;;64.17;38.17;;;;;;;7.88;95.97;99689.28;1796017;79;21406;-66
2021/04/01 01:50:30;;;;;;;68.00;40.23;;;;;;;7.87;96.08;99686.29;1795948;78;21336;-67
2021/04/01 01:52:59;;;;;;;76.92;41.23;;;;;;;7.87;96.03;99680.02;1795930;79;21098;-67
2021/04/01 01:55:27;;;;;;;72.75;39.63;;;;;;;7.84;95.94;99686.88;1796013;79;21516;-67
2021/04/01 01:57:56;;;;;;;74.40;39.33;;;;;;;7.84;95.90;99687.43;1796027;79;21424;-67
2021/04/01 02:00:34;;;;;;;76.97;39.53;;;;;;;7.82;95.87;99682.81;1796117;79;21851;-67
2021/04/01 02:03:04;;;;;;;68.80;38.70;;;;;;;7.81;95.87;99683.92;1795975;79;21388;-68
2021/04/01 02:05:33;;;;;;;69.82;38.80;;;;;;;7.80;95.92;99680.92;1795918;79;21011;-68
2021/04/01 02:08:01;;;;;;;69.70;40.15;;;;;;;7.78;95.97;99675.75;1795965;79;21146;-68
2021/04/01 02:10:34;;;;;;;70.52;39.65;;;;;;;7.77;96.01;99671.39;1795928;79;21113;-68
2021/04/01 02:13:03;;;;;;;73.02;40.33;;;;;;;7.77;96.05;99675.49;1795967;79;21896;-68
2021/04/01 02:15:35;;;;;;;63.52;38.63;;;;;;;7.77;96.06;99668.66;1795839;79;21401;-68
2021/04/01 02:18:11;;;;;;;81.65;41.70;;;;;;;7.78;96.02;99674.39;1796161;79;21392;-68
2021/04/01 02:20:42;;;;;;;71.95;40.23;;;;;;;7.77;96.06;99677.41;1796208;79;21889;-68
2021/04/01 02:23:25;;;;;;;77.20;42.78;;;;;;;7.75;96.02;99670.88;1796173;79;21134;-70
2021/04/01 02:25:54;;;;;;;64.90;37.28;;;;;;;7.75;96.10;99665.96;1796158;79;21687;-70
2021/04/01 02:28:24;;;;;;;78.30;40.58;;;;;;;7.71;96.19;99664.92;1796112;79;21137;-70
2021/04/01 02:30:54;;;;;;;74.72;39.80;;;;;;;7.69;96.26;99663.85;1796169;79;21114;-68
2021/04/01 02:33:27;;;;;;;79.70;41.98;;;;;;;7.65;96.34;99662.00;1796067;79;21137;-66
2021/04/01 02:35:55;;;;;;;;;;;;;;;7.61;96.36;99661.77;1781412;79;21101;-66
2021/04/01 02:38:22;;;;;;;70.28;40.43;;;;;;;7.59;96.43;99663.98;1793620;79;21206;-66
2021/04/01 02:40:52;;;;;;;76.17;41.80;;;;;;;7.56;96.70;99657.73;1793474;79;21396;-66
2021/04/01 02:43:38;;;;;;;80.35;42.15;;;;;;;7.54;96.84;99660.76;1793523;79;21129;-66
2021/04/01 02:45:52;;;;;;;81.53;39.88;;;;;;;7.51;97.09;99657.25;1785185;79;21365;-67
2021/04/01 02:48:20;;;;;;;83.05;41.73;;;;;;;7.50;97.37;99659.75;1793562;79;21126;-66
2021/04/01 02:50:50;;;;;;;79.17;43.83;;;;;;;7.51;97.57;99660.56;1793576;78;21417;-67
2021/04/01 02:53:19;;;;;;;79.30;44.03;;;;;;;7.54;97.59;99659.39;1793602;79;21437;-67
2021/04/01 02:55:46;;;;;;;79.50;42.35;;;;;;;7.57;97.73;99668.92;1793537;79;21166;-68
2021/04/01 02:58:14;;;;;;;84.00;45.63;;;;;;;7.58;97.75;99663.17;1793532;79;21165;-69
2021/04/01 03:00:42;;;;;;;78.65;42.93;;;;;;;7.61;97.74;99660.41;1793551;79;21125;-67
2021/04/01 03:03:14;;;;;;;79.82;42.83;;;;;;;7.63;97.70;99660.92;1793610;79;21370;-68
2021/04/01 03:05:39;;;;;;;77.42;43.08;;;;;;;7.64;97.74;99658.45;1793584;79;21926;-68
2021/04/01 03:08:07;;;;;;;76.55;45.23;;;;;;;7.66;97.74;99648.05;1793572;79;21130;-68
2021/04/01 03:10:35;;;;;;;76.33;42.88;;;;;;;7.69;97.71;99652.92;1793523;79;21016;-68
2021/04/01 03:13:02;;;;;;;79.27;43.78;;;;;;;7.70;97.63;99643.62;1793607;79;21129;-68
2021/04/01 03:15:30;;;;;;;80.12;43.52;;;;;;;7.71;97.64;99643.87;1793470;79;21393;-68
2021/04/01 03:17:59;;;;;;;82.25;43.48;;;;;;;7.74;97.67;99641.92;1793534;79;21872;-68
2021/04/01 03:20:28;;;;;;;77.20;44.10;;;;;;;7.77;97.63;99643.25;1793482;79;21404;-68
2021/04/01 03:22:55;;;;;;;79.77;42.62;;;;;;;7.78;97.50;99641.59;1793666;79;21918;-68
2021/04/01 03:25:22;;;;;;;73.07;43.30;;;;;;;7.79;97.45;99641.85;1793543;79;21138;-68
2021/04/01 03:27:50;;;;;;;76.10;44.90;;;;;;;7.81;97.41;99641.56;1793519;79;21391;-68
2021/04/01 03:30:18;;;;;;;79.47;43.00;;;;;;;7.82;97.35;99640.45;1793425;79;21399;-68
2021/04/01 03:32:47;;;;;;;82.33;45.05;;;;;;;7.81;97.32;99638.27;1793555;79;21859;-68
2021/04/01 03:35:25;;;;;;;79.00;44.42;;;;;;;7.83;97.34;99635.24;1795708;79;21870;-68
2021/04/01 03:37:55;;;;;;;80.90;45.05;;;;;;;7.84;97.37;99638.23;1803413;79;21408;-68
2021/04/01 03:40:23;;;;;;;72.78;42.05;;;;;;;7.85;97.37;99640.67;1804005;79;20987;-68
2021/04/01 03:42:51;;;;;;;79.62;42.62;;;;;;;7.87;97.37;99637.09;1803861;79;21156;-68
2021/04/01 03:45:20;;;;;;;73.47;43.00;;;;;;;7.87;97.36;99640.38;1803898;79;21147;-69
2021/04/01 03:47:49;;;;;;;77.22;43.83;;;;;;;7.88;97.36;99642.00;1803281;79;21276;-69
2021/04/01 03:50:16;;;;;;;89.17;43.63;;;;;;;7.87;97.27;99635.72;1803993;78;21422;-69
2021/04/01 03:52:44;;;;;;;79.32;43.98;;;;;;;7.88;97.32;99639.27;1803965;79;21876;-69
2021/04/01 03:57:53;;;;;;;75.57;43.95;;;;;;;7.84;97.29;99629.48;1803900;79;21742;-69
2021/04/01 04:00:27;;;;;;;75.55;43.50;;;;;;;7.86;97.32;99633.28;1803896;79;21389;-69
2021/04/01 04:16:00;;;;;;;76.17;43.28;;;;;;;7.86;98.03;99623.16;1803934;79;21173;-70
2021/04/01 04:18:28;;;;;;;77.45;44.45;;;;;;;7.88;98.10;99625.61;1803831;79;21874;-68
2021/04/01 04:20:56;;;;;;;80.40;44.35;;;;;;;7.88;98.11;99619.58;1803826;79;20995;-67
2021/04/01 04:23:24;;;;;;;77.05;42.50;;;;;;;7.89;98.07;99622.58;1803912;79;21102;-67
2021/04/01 04:25:55;;;;;;;81.37;43.95;;;;;;;7.90;98.01;99620.10;1804070;79;21863;-66
2021/04/01 04:28:31;;;;;;;79.62;42.17;;;;;;;7.92;97.94;99615.70;1804008;79;21424;-66
2021/04/01 04:30:54;;;;;;;;;;;;;;;7.93;97.90;99620.87;1805973;79;21407;-65
2021/04/01 04:33:21;;;;;;;88.72;44.48;;;;;;;7.97;97.91;99617.55;1803928;79;21196;-66
2021/04/01 04:35:50;;;;;;;77.80;43.75;;;;;;;7.99;97.93;99613.41;1803792;79;21101;-66
2021/04/01 04:38:18;;;;;;;77.50;43.35;;;;;;;8.05;97.87;99608.67;1803895;79;21113;-65
2021/04/01 04:40:46;;;;;;;90.35;44.25;;;;;;;8.11;97.74;99605.53;1803589;79;21178;-67
2021/04/01 04:43:14;;;;;;;84.17;45.52;;;;;;;8.16;97.51;99608.19;1803909;79;21384;-67
2021/04/01 04:45:41;;;;;;;78.78;41.83;;;;;;;8.21;97.34;99607.30;1803789;79;21142;-67
2021/04/01 04:48:09;;;;;;;85.47;44.53;;;;;;;8.26;97.06;99609.39;1803853;79;20980;-67
2021/04/01 04:50:38;;;;;;;74.97;41.35;;;;;;;8.32;96.85;99601.91;1803914;78;21123;-67
2021/04/01 04:56:45;;;;;;;77.12;41.10;;;;;;;8.38;96.28;99594.47;1803761;79;21038;-68
2021/04/01 04:59:24;;;;;;;82.88;43.10;;;;;;;8.43;95.92;99589.72;1803781;79;21278;-68
2021/04/01 05:04:46;;;;;;;73.50;40.92;;;;;;;8.52;95.92;99590.66;1804037;79;21853;-67
2021/04/01 05:07:10;;;;;;;79.35;42.78;;;;;;;8.58;95.68;99589.45;1803779;79;21414;-68
2021/04/01 05:09:40;;;;;;;77.80;41.50;;;;;;;8.65;95.44;99587.69;1803821;79;21385;-66
2021/04/01 05:12:09;;;;;;;75.42;40.50;;;;;;;8.68;95.27;99585.69;1803722;79;21011;-67
2021/04/01 05:14:37;;;;;;;78.45;41.88;;;;;;;8.70;95.20;99587.56;1804019;79;21181;-65
2021/04/01 05:17:06;;;;;;;73.52;39.23;;;;;;;8.72;95.15;99581.79;1803864;79;21396;-65
2021/04/01 05:19:34;;;;;;;73.95;38.28;;;;;;;8.75;95.14;99579.27;1803896;79;21138;-66
2021/04/01 05:24:38;;;;;;;67.62;38.48;;;;;;;8.84;94.86;99574.70;1803792;79;21352;-65
2021/04/01 05:27:22;;;;;;;72.92;38.48;;;;;;;8.85;94.64;99581.80;1803921;79;21353;-67
2021/04/01 05:29:58;;;;;;;74.80;40.15;;;;;;;8.88;94.54;99574.91;1803158;79;21899;-66
2021/04/01 05:32:30;;;;;;;68.75;35.90;;;;;;;8.90;94.49;99573.50;1803939;79;21114;-67
2021/04/01 05:35:00;;;;;;;76.97;40.98;;;;;;;8.98;94.35;99567.87;1775113;79;22718;-67
2021/04/01 05:37:29;;;;;;;69.85;37.78;;;;;;;9.06;94.17;99572.63;1774327;79;21103;-66
2021/04/01 05:39:57;;;;;;;69.50;36.60;;;;;;;9.15;94.04;99569.44;1803927;79;21862;-66
2021/04/01 05:42:26;;;;;;;69.25;35.88;;;;;;;9.24;93.54;99568.16;1803920;79;21892;-66
2021/04/01 05:45:39;;;;;;;74.40;38.70;;;;;;;9.34;92.99;99572.59;1775303;79;21428;-66
2021/04/01 05:47:43;;;;;;;70.80;38.10;;;;;;;9.40;92.68;99563.95;1771791;79;20987;-66
2021/04/01 05:50:09;;;;;;;69.40;38.30;;;;;;;9.49;92.33;99560.73;1797690;79;21402;-66
2021/04/01 05:53:56;;;;;;;71.50;37.42;;;;;;;9.60;91.82;99556.65;1801765;79;21392;-66
2021/04/01 05:55:54;;;;;;;64.05;39.08;;;;;;;9.72;91.19;99549.25;1772005;79;21167;-68
2021/04/01 06:06:08;;;;;;;;;;;;;;;10.02;89.15;99552.36;1806730;79;21130;-70
2021/04/01 06:08:41;;;;;;;70.45;36.95;;;;;;;10.15;88.54;99552.86;1805911;79;20196;-69
2021/04/01 06:11:09;;;;;;;71.12;35.45;;;;;;;10.25;87.57;99552.64;1806244;79;21536;-71
2021/04/01 06:14:07;;;;;;;66.10;35.70;;;;;;;10.31;86.83;99555.50;1806029;79;21368;-70
2021/04/01 06:16:12;;;;;;;66.53;36.03;;;;;;;10.38;86.86;99550.94;1798459;79;21119;-71
2021/04/01 06:18:42;;;;;;;66.45;35.30;;;;;;;10.48;86.51;99548.71;1806018;79;21567;-69
2021/04/01 06:24:49;;;;;;;64.47;33.95;;;;;;;10.76;85.64;99537.55;1805971;79;21007;-72
2021/04/01 06:27:56;;;;;;;65.65;34.90;;;;;;;11.01;84.44;99533.24;1805891;79;21376;-70
2021/04/01 06:30:14;;;;;;;70.72;34.85;;;;;;;11.15;83.72;99537.48;1797387;79;21146;-70
2021/04/01 06:32:50;;;;;;;66.10;35.17;;;;;;;11.31;82.41;99542.53;1780659;79;21104;-69
2021/04/01 06:35:25;;;;;;;54.38;31.90;;;;;;;11.44;81.89;99534.72;1805922;79;21114;-68
2021/04/01 06:40:56;;;;;;;63.85;35.95;;;;;;;11.72;80.91;99529.70;1809703;79;22607;-66
2021/04/01 06:43:49;;;;;;;50.60;30.30;;;;;;;11.89;80.49;99529.73;1809692;79;21848;-66
2021/04/01 06:46:18;;;;;;;54.73;31.25;;;;;;;12.08;79.35;99528.82;1809637;79;21408;-69
2021/04/01 06:51:41;;;;;;;50.50;29.65;;;;;;;12.29;76.93;99520.66;1809703;77;21403;-68
2021/04/01 06:54:22;;;;;;;47.75;27.17;;;;;;;12.37;77.23;99510.77;1809727;79;21378;-67
2021/04/01 06:59:46;;;;;;;48.85;28.38;;;;;;;12.67;76.01;99510.27;1782304;79;21155;-67
2021/04/01 07:02:30;;;;;;;47.58;28.30;;;;;;;12.77;75.33;99509.86;1757341;81;21130;-67
2021/04/01 07:05:00;;;;;;;42.30;26.62;;;;;;;12.93;74.72;99512.30;1758461;81;26765;-67
2021/04/01 07:07:25;;;;;;;50.83;26.25;;;;;;;13.07;73.44;99502.42;1757800;81;21553;-68
2021/04/01 07:10:23;;;;;;;41.40;23.10;;;;;;;13.19;73.26;99497.84;1758257;81;21762;-68
2021/04/01 07:12:40;;;;;;;44.53;23.62;;;;;;;13.35;71.44;99491.70;1755693;81;21150;-68
2021/04/01 07:17:57;;;;;;;34.10;21.57;;;;;;;13.61;70.68;99488.19;1869732;76;22535;-69
2021/04/01 07:48:14;;;;;;;40.48;20.97;;;;;;;16.64;58.83;99475.74;1814260;78;21122;-67
2021/04/01 07:53:26;;;;;;;34.48;21.12;;;;;;;16.71;57.17;99462.06;1869735;76;22665;-68
2021/04/01 08:03:58;;;;;;;38.63;22.75;;;;;;;16.85;58.20;99464.35;1837869;78;21790;-68
2021/04/01 08:06:28;;;;;;;36.80;22.10;;;;;;;17.08;57.56;99447.28;1838447;78;21011;-68
2021/04/01 08:09:02;;;;;;;39.27;22.60;;;;;;;17.21;57.02;99449.94;1838940;78;21104;-68
2021/04/01 08:11:54;;;;;;;45.25;21.37;;;;;;;17.33;56.12;99437.32;1838768;78;22615;-72
2021/04/01 08:14:17;;;;;;;37.30;21.02;;;;;;;17.28;55.58;99438.41;1828025;78;20996;-70
2021/04/01 08:16:52;;;;;;;41.20;22.98;;;;;;;17.03;56.40;99445.36;1810558;78;21008;-68
2021/04/01 08:19:22;;;;;;;39.65;21.80;;;;;;;16.82;56.76;99440.12;1837576;78;21419;-69
2021/04/01 08:21:51;;;;;;;37.10;22.13;;;;;;;16.81;57.69;99441.28;1833225;77;21142;-68
2021/04/01 08:24:23;;;;;;;41.63;23.67;;;;;;;17.05;57.76;99429.97;1827072;77;21513;-70
2021/04/01 08:30:47;;;;;;;43.40;23.25;;;;;;;17.68;55.97;99428.36;1822047;78;21120;-69
2021/04/01 08:35:06;;;;;;;41.73;23.30;;;;;;;17.95;53.99;99414.57;1761012;80;21910;-66
2021/04/01 08:37:37;;;;;;;40.95;23.32;;;;;;;17.89;54.11;99418.27;1764036;80;22109;-67
2021/04/01 08:40:08;;;;;;;37.55;22.25;;;;;;;17.83;54.39;99407.23;1703153;82;21918;-67
2021/04/01 08:42:53;;;;;;;43.55;23.32;;;;;;;17.88;54.62;99412.49;1763228;80;21164;-68
2021/04/01 08:45:38;;;;;;;39.55;22.30;;;;;;;18.05;54.28;99418.14;1767034;80;21156;-66
2021/04/01 08:48:55;;;;;;;37.25;23.18;;;;;;;18.11;53.49;99411.11;1766618;80;21410;-68
2021/04/01 08:51:55;;;;;;;37.53;22.32;;;;;;;18.10;54.20;99406.14;1754618;80;21624;-69
2021/04/01 08:54:37;;;;;;;38.60;21.20;;;;;;;18.17;53.50;99401.30;1745726;81;21183;-67
2021/04/01 09:00:44;;;;;;;40.28;23.57;;;;;;;17.75;54.11;99391.02;1745823;82;21042;-71
2021/04/01 09:03:12;;;;;;;42.53;22.40;;;;;;;17.68;55.27;99396.44;1745728;82;21850;-72
2021/04/01 09:05:54;;;;;;;37.23;21.95;;;;;;;17.86;54.88;99396.78;1747112;82;21389;-69
2021/04/01 09:08:25;;;;;;;40.28;23.27;;;;;;;18.10;53.95;99384.50;1744987;82;21450;-72
2021/04/01 09:10:56;;;;;;;40.65;24.72;;;;;;;18.30;53.18;99392.19;1716850;82;21058;-73
2021/04/01 09:13:31;;;;;;;41.02;24.72;;;;;;;18.37;53.25;99389.53;1717714;82;21185;-71
2021/04/01 09:18:37;;;;;;;50.05;24.60;;;;;;;18.31;53.66;99369.59;1870953;76;22662;-68
2021/04/01 09:21:25;;;;;;;33.88;21.50;;;;;;;18.13;53.65;99375.43;1835283;76;20942;-72
2021/04/01 09:23:55;;;;;;;33.80;20.65;;;;;;;18.11;53.98;99367.47;1754103;81;21772;-74
2021/04/01 09:26:25;;;;;;;41.05;23.45;;;;;;;18.17;53.98;99369.35;1768698;80;21014;-75
2021/04/01 09:29:05;;;;;;;32.78;21.87;;;;;;;18.35;53.74;99367.67;1737682;80;21156;-74
2021/04/01 09:31:44;;;;;;;37.25;23.30;;;;;;;18.79;53.24;99365.78;1770540;80;21292;-75
2021/04/01 09:34:05;;;;;;;;;;;;;;;19.16;51.47;99363.69;1720087;80;21862;-70
2021/04/01 09:36:41;;;;;;;42.65;22.20;;;;;;;19.17;50.80;99359.14;1774969;79;21199;-71
2021/04/01 09:41:43;;;;;;;40.65;23.45;;;;;;;19.18;51.46;99348.81;1769119;80;21172;-71
2021/04/01 09:44:11;;;;;;;34.38;21.20;;;;;;;18.99;51.74;99342.23;1757064;81;21101;-72
2021/04/01 09:47:18;;;;;;;36.25;21.50;;;;;;;18.97;52.08;99339.03;1766496;80;21125;-71
2021/04/01 09:50:07;;;;;;;31.95;17.80;;;;;;;18.84;51.62;99336.27;1756710;81;21176;-73
2021/04/01 09:52:35;;;;;;;38.05;20.00;;;;;;;18.70;51.44;99328.52;1741286;82;21196;-73
2021/04/01 09:55:13;;;;;;;32.88;19.95;;;;;;;18.70;51.71;99324.34;1739894;81;21529;-70
2021/04/01 09:57:48;;;;;;;29.82;19.12;;;;;;;18.73;51.38;99325.58;1741133;81;21057;-71
2021/04/01 10:03:22;;;;;;;29.67;18.32;;;;;;;19.06;50.81;99310.94;1699810;83;21392;-71
2021/04/01 10:05:52;;;;;;;32.90;19.42;;;;;;;19.47;50.55;99315.98;1745334;82;21148;-73
2021/04/01 10:08:26;;;;;;;31.73;19.95;;;;;;;19.68;49.04;99323.17;1736095;82;21144;-73
2021/04/01 10:11:09;;;;;;;31.23;18.77;;;;;;;19.38;49.51;99310.70;1730911;82;21153;-71
2021/04/01 10:13:37;;;;;;;29.35;18.10;;;;;;;19.09;49.95;99307.36;1739166;81;21861;-69
2021/04/01 10:16:22;;;;;;;34.50;17.17;;;;;;;18.78;49.86;99302.42;1694262;82;21795;-72
2021/04/01 10:18:51;;;;;;;27.13;16.37;;;;;;;18.50;50.61;99297.80;1730268;82;21908;-65
2021/04/01 10:21:21;;;;;;;27.70;18.00;;;;;;;18.24;51.27;99297.23;1700571;82;21571;-69
2021/04/01 10:23:56;;;;;;;27.05;17.17;;;;;;;18.08;51.73;99294.59;1750474;81;21217;-68
2021/04/01 10:26:35;;;;;;;27.17;16.97;;;;;;;17.97;51.37;99295.00;1712403;82;21799;-68
2021/04/01 10:29:12;;;;;;;29.60;16.52;;;;;;;17.77;51.71;99290.13;1730170;81;21410;-68
2021/04/01 10:31:47;;;;;;;26.12;15.83;;;;;;;17.55;51.83;99278.97;1750670;81;21042;-73
2021/04/01 10:34:22;;;;;;;28.05;15.53;;;;;;;17.39;52.19;99277.09;1749835;81;21184;-66
2021/04/01 10:36:50;;;;;;;27.22;15.78;;;;;;;17.36;52.53;99274.26;1751946;81;21550;-67
2021/04/01 10:39:18;;;;;;;27.17;14.45;;;;;;;17.49;52.87;99264.59;1752614;81;21573;-68
2021/04/01 10:41:51;;;;;;;16.73;12.60;;;;;;;17.69;51.83;99266.77;1752471;81;22413;-65
2021/04/01 10:44:21;;;;;;;25.15;13.70;;;;;;;17.87;49.66;99260.14;1750894;81;21018;-65
2021/04/01 10:46:54;;;;;;;21.80;14.83;;;;;;;17.98;49.52;99261.09;1757388;81;21482;-64
2021/04/01 10:49:25;;;;;;;36.55;21.37;;;;;;;18.22;48.98;99252.35;1759020;81;21568;-67
2021/04/01 10:52:04;;;;;;;18.32;12.28;;;;;;;18.69;47.08;99246.28;1760517;81;21540;-66
2021/04/01 10:54:41;;;;;;;20.43;13.30;;;;;;;19.27;45.67;99240.20;1731545;82;21207;-67
2021/04/01 10:57:13;;;;;;;16.77;11.75;;;;;;;19.88;44.50;99243.58;1755335;81;21124;-66
2021/04/01 10:59:48;;;;;;;18.53;12.37;;;;;;;20.14;42.94;99220.30;1717000;82;21200;-66
2021/04/01 11:02:19;;;;;;;17.07;10.38;;;;;;;20.00;43.88;99219.02;1732876;82;21464;-72
2021/04/01 11:04:54;;;;;;;20.68;11.57;;;;;;;19.61;43.34;99225.67;1733900;82;21183;-67
2021/04/01 11:07:21;;;;;;;24.37;13.10;;;;;;;19.52;43.89;99223.80;1732481;82;21448;-67
2021/04/01 11:09:51;;;;;;;16.25;10.63;;;;;;;19.74;43.82;99228.94;1733975;82;21186;-67
2021/04/01 11:12:20;;;;;;;22.07;11.60;;;;;;;20.16;42.35;99210.97;1734523;81;21420;-67
2021/04/01 11:14:53;;;;;;;20.97;11.48;;;;;;;20.43;42.26;99215.13;1734664;82;21143;-68
2021/04/01 11:17:24;;;;;;;16.77;11.20;;;;;;;20.54;41.49;99203.44;1730543;80;21173;-67
2021/04/01 11:19:53;;;;;;;19.30;12.17;;;;;;;20.39;41.27;99204.55;1702380;83;21939;-69
2021/04/01 11:22:21;;;;;;;22.93;13.85;;;;;;;20.00;41.80;99206.47;1761949;81;21438;-68
2021/04/01 11:24:49;;;;;;;19.50;11.18;;;;;;;19.61;42.62;99202.00;1702778;84;21435;-67
2021/04/01 11:27:20;;;;;;;19.27;11.28;;;;;;;19.29;42.95;99200.27;1764259;80;21145;-66
2021/04/01 11:29:56;;;;;;;21.87;9.83;;;;;;;19.09;43.11;99194.69;1786063;79;21752;-67
2021/04/01 11:32:31;;;;;;;16.32;10.20;;;;;;;19.01;43.21;99189.67;1785796;79;21349;-66
2021/04/01 11:35:03;;;;;;;19.98;10.80;;;;;;;19.25;42.08;99188.89;1710352;83;21157;-66
2021/04/01 11:37:37;;;;;;;24.70;14.23;;;;;;;19.67;40.66;99194.07;1719842;81;21926;-67
2021/04/01 11:40:08;;;;;;;18.45;11.88;;;;;;;20.03;41.64;99184.80;1717250;82;21829;-67
2021/04/01 11:42:37;;;;;;;19.55;11.30;;;;;;;20.27;40.58;99174.98;1719013;82;21130;-67
2021/04/01 11:45:07;;;;;;;27.20;14.47;;;;;;;20.49;41.17;99160.59;1710009;83;21737;-67
2021/04/01 11:51:34;;;;;;;20.97;12.20;;;;;;;21.10;40.46;99158.19;1763628;81;21441;-66
2021/04/01 11:54:08;;;;;;;20.55;9.68;;;;;;;21.27;39.13;99158.05;1723636;82;21372;-67
2021/04/01 11:56:41;;;;;;;20.60;10.75;;;;;;;21.10;39.09;99154.59;1705400;84;21165;-67
2021/04/01 11:59:23;;;;;;;19.55;10.43;;;;;;;21.05;39.04;99150.20;1704611;83;21273;-67
2021/04/01 12:01:58;;;;;;;22.85;11.90;;;;;;;21.10;39.42;99153.20;1683164;84;21753;-66
2021/04/01 12:08:05;;;;;;;20.60;10.68;;;;;;;20.84;39.71;99138.19;1706527;83;21978;-68
2021/04/01 12:10:35;;;;;;;14.38;9.55;;;;;;;20.31;39.21;99125.63;1706971;83;21132;-68
2021/04/01 12:13:26;;;;;;;16.62;10.30;;;;;;;19.96;39.39;99131.02;1706789;83;21042;-68
2021/04/01 12:15:56;;;;;;;18.45;10.18;;;;;;;19.94;39.70;99127.23;1676642;85;21007;-69
2021/04/01 12:22:09;;;;;;;14.10;8.13;;;;;;;20.67;39.67;99111.86;1697064;84;21784;-67
2021/04/01 12:24:37;;;;;;;15.85;9.40;;;;;;;20.95;38.99;99103.54;1658491;85;21340;-67
2021/04/01 12:27:06;;;;;;;14.20;9.10;;;;;;;20.94;37.80;99099.16;1637849;86;21447;-67
2021/04/01 12:29:45;;;;;;;15.03;8.75;;;;;;;21.10;37.83;99094.00;1658551;86;21187;-68
2021/04/01 12:32:12;;;;;;;16.02;8.15;;;;;;;21.51;37.58;99095.02;1658682;86;21413;-68
2021/04/01 12:34:40;;;;;;;15.48;8.95;;;;;;;21.97;36.82;99092.13;1646742;86;21195;-67
2021/04/01 12:37:14;;;;;;;12.55;8.35;;;;;;;22.34;35.76;99094.45;1658602;86;21442;-68
2021/04/01 12:39:42;;;;;;;10.45;8.33;;;;;;;22.62;33.80;99091.30;1658677;86;21215;-67
2021/04/01 12:42:12;;;;;;;10.80;7.30;;;;;;;22.75;32.35;99081.23;1658524;86;21415;-67
2021/04/01 12:44:42;;;;;;;12.78;7.80;;;;;;;22.80;33.45;99086.44;1658766;86;21137;-67
2021/04/01 12:47:21;;;;;;;13.28;9.18;;;;;;;22.83;33.49;99068.83;1658535;85;21141;-67
2021/04/01 12:49:49;;;;;;;16.37;9.55;;;;;;;22.64;33.61;99072.91;1701816;84;21919;-67
2021/04/01 12:52:16;;;;;;;17.15;8.55;;;;;;;22.26;34.70;99060.72;1693806;83;21475;-68
2021/04/01 12:54:50;;;;;;;15.38;8.73;;;;;;;22.13;34.57;99067.96;1719246;83;21149;-67
2021/04/01 12:57:21;;;;;;;15.23;8.95;;;;;;;22.12;34.62;99062.17;1719184;83;21156;-67
2021/04/01 12:59:53;;;;;;;10.28;7.62;;;;;;;21.97;33.99;99056.40;1714706;83;21152;-67
2021/04/01 13:02:24;;;;;;;15.63;8.38;;;;;;;21.56;34.14;99052.72;1693803;83;21136;-67
2021/04/01 13:12:50;;;;;;;14.25;7.83;;;;;;;20.43;35.92;99041.68;1856861;77;21022;-68
2021/04/01 13:15:20;;;;;;;19.17;10.45;;;;;;;20.47;36.60;99034.72;1856852;77;21884;-67
2021/04/01 13:17:47;;;;;;;14.35;9.13;;;;;;;20.69;36.55;99025.81;1823741;77;21768;-68
2021/04/01 13:20:17;;;;;;;16.17;8.88;;;;;;;21.05;36.53;99022.44;1824168;77;21010;-67
2021/04/01 13:23:11;;;;;;;17.80;8.63;;;;;;;21.50;35.41;99015.23;1824175;77;21145;-68
2021/04/01 13:25:24;;;;;;;14.30;8.18;;;;;;;21.67;34.89;99013.60;1853359;77;21597;-66
2021/04/01 13:27:53;;;;;;;14.30;8.20;;;;;;;21.54;34.41;99006.25;1856814;77;20995;-68
2021/04/01 13:30:23;;;;;;;17.02;8.35;;;;;;;21.45;34.99;99003.67;1856990;77;21308;-67
2021/04/01 13:33:00;;;;;;;12.63;8.30;;;;;;;21.58;35.32;99005.64;1856922;77;20990;-68
2021/04/01 13:35:29;;;;;;;16.70;8.75;;;;;;;21.70;35.33;99008.01;1855165;77;21407;-68
2021/04/01 13:37:59;;;;;;;13.93;8.40;;;;;;;21.43;35.12;99005.47;1823332;77;23324;-69
2021/04/01 13:40:22;;;;;;;20.37;8.43;;;;;;;20.95;35.96;98995.33;1855463;77;20967;-71
2021/04/01 13:42:53;;;;;;;16.57;9.30;;;;;;;20.54;36.72;98993.52;1857171;77;21018;-67
2021/04/01 13:45:24;;;;;;;18.70;9.75;;;;;;;20.22;37.62;98985.84;1856910;77;21829;-68
2021/04/01 13:48:01;;;;;;;14.38;8.00;;;;;;;19.90;38.88;98987.73;1856976;77;21129;-69